sensor_id;sensor_type;location;lat;lon;timestamp;pressure;altitude;pressure_sealevel;temperature;humidity
73974;BME280;62336;-26.094;27.994;2023-02-15T04:09:15;84550.92;;;18.22;88.09
73974;BME280;62336;-26.094;27.994;2023-02-15T04:11:37;84550.33;;;21.23;70.50
73974;BME280;62336;-26.094;27.994;2023-02-15T04:14:02;84553.52;;;23.25;59.86
73974;BME280;62336;-26.094;27.994;2023-02-15T04:16:29;84562.45;;;24.94;53.27
73974;BME280;62336;-26.094;27.994;2023-02-15T04:18:54;84564.86;;;25.79;48.04
73974;BME280;62336;-26.094;27.994;2023-02-15T04:21:21;84569.25;;;26.98;44.73
73974;BME280;62336;-26.094;27.994;2023-02-15T04:23:46;84573.63;;;27.78;41.83
73974;BME280;62336;-26.094;27.994;2023-02-15T04:26:12;84576.77;;;28.44;40.12
73974;BME280;62336;-26.094;27.994;2023-02-15T04:28:37;84573.97;;;28.87;38.78
73974;BME280;62336;-26.094;27.994;2023-02-15T04:31:03;84578.87;;;29.14;37.74
73974;BME280;62336;-26.094;27.994;2023-02-15T04:33:28;84583.39;;;29.30;37.31
73974;BME280;62336;-26.094;27.994;2023-02-15T04:35:54;84588.55;;;29.57;36.64
73974;BME280;62336;-26.094;27.994;2023-02-15T04:38:19;84585.28;;;29.94;36.22
73974;BME280;62336;-26.094;27.994;2023-02-15T04:40:50;84585.26;;;29.99;35.52
73974;BME280;62336;-26.094;27.994;2023-02-15T04:43:10;84588.52;;;30.17;35.35
73974;BME280;62336;-26.094;27.994;2023-02-15T04:45:36;84589.08;;;30.41;35.21
73974;BME280;62336;-26.094;27.994;2023-02-15T04:48:02;84594.16;;;30.93;34.58
73974;BME280;62336;-26.094;27.994;2023-02-15T04:50:27;84593.83;;;30.60;34.48
73974;BME280;62336;-26.094;27.994;2023-02-15T04:52:53;84597.45;;;30.56;34.58
73974;BME280;62336;-26.094;27.994;2023-02-15T04:55:19;84599.30;;;30.76;34.45
73974;BME280;62336;-26.094;27.994;2023-02-15T04:57:46;84599.90;;;31.02;33.96
73974;BME280;62336;-26.094;27.994;2023-02-15T05:00:11;84598.15;;;31.17;33.78
73974;BME280;62336;-26.094;27.994;2023-02-15T05:02:36;84600.70;;;31.09;34.17
73974;BME280;62336;-26.094;27.994;2023-02-15T05:05:03;84599.96;;;30.83;34.17
73974;BME280;62336;-26.094;27.994;2023-02-15T05:07:27;84602.04;;;30.95;34.23
73974;BME280;62336;-26.094;27.994;2023-02-15T05:09:53;84605.25;;;30.84;34.21
73974;BME280;62336;-26.094;27.994;2023-02-15T05:12:19;84606.41;;;31.38;34.28
73974;BME280;62336;-26.094;27.994;2023-02-15T05:14:44;84611.04;;;31.12;34.20
73974;BME280;62336;-26.094;27.994;2023-02-15T05:17:10;84613.29;;;31.20;34.18
73974;BME280;62336;-26.094;27.994;2023-02-15T05:19:36;84616.61;;;31.38;34.41
73974;BME280;62336;-26.094;27.994;2023-02-15T05:22:01;84617.12;;;31.52;34.30
73974;BME280;62336;-26.094;27.994;2023-02-15T05:24:27;84616.51;;;31.11;34.33
73974;BME280;62336;-26.094;27.994;2023-02-15T05:26:52;84621.87;;;31.55;34.13
73974;BME280;62336;-26.094;27.994;2023-02-15T05:29:18;84627.43;;;31.13;34.32
73974;BME280;62336;-26.094;27.994;2023-02-15T05:31:44;84632.35;;;31.22;34.39
73974;BME280;62336;-26.094;27.994;2023-02-15T05:34:09;84632.28;;;31.42;34.35
73974;BME280;62336;-26.094;27.994;2023-02-15T05:36:35;84633.71;;;31.55;34.23
73974;BME280;62336;-26.094;27.994;2023-02-15T05:39:01;84634.28;;;31.59;34.31
73974;BME280;62336;-26.094;27.994;2023-02-15T05:41:26;84632.45;;;31.56;34.09
73974;BME280;62336;-26.094;27.994;2023-02-15T05:43:54;84638.64;;;32.08;34.23
73974;BME280;62336;-26.094;27.994;2023-02-15T05:46:18;84641.65;;;31.98;34.19
73974;BME280;62336;-26.094;27.994;2023-02-15T05:48:43;84636.48;;;31.63;33.84
73974;BME280;62336;-26.094;27.994;2023-02-15T05:51:10;84629.32;;;31.91;34.02
73974;BME280;62336;-26.094;27.994;2023-02-15T05:53:36;84629.86;;;31.84;34.19
73974;BME280;62336;-26.094;27.994;2023-02-15T05:56:00;84630.58;;;31.76;34.00
73974;BME280;62336;-26.094;27.994;2023-02-15T05:58:27;84627.45;;;31.86;33.79
73974;BME280;62336;-26.094;27.994;2023-02-15T06:00:52;84628.22;;;31.89;33.05
73974;BME280;62336;-26.094;27.994;2023-02-15T06:03:18;84628.57;;;31.99;33.79
73974;BME280;62336;-26.094;27.994;2023-02-15T06:05:43;84626.88;;;32.30;33.57
73974;BME280;62336;-26.094;27.994;2023-02-15T06:08:10;84626.73;;;32.07;33.56
73974;BME280;62336;-26.094;27.994;2023-02-15T06:10:35;84631.63;;;31.87;32.93
73974;BME280;62336;-26.094;27.994;2023-02-15T06:13:01;84632.21;;;32.60;32.59
73974;BME280;62336;-26.094;27.994;2023-02-15T06:15:27;84630.07;;;32.87;31.97
73974;BME280;62336;-26.094;27.994;2023-02-15T06:17:53;84632.38;;;33.10;31.77
73974;BME280;62336;-26.094;27.994;2023-02-15T06:20:19;84630.06;;;33.29;31.81
73974;BME280;62336;-26.094;27.994;2023-02-15T06:22:45;84627.34;;;33.33;31.93
73974;BME280;62336;-26.094;27.994;2023-02-15T06:25:10;84620.41;;;33.22;31.71
73974;BME280;62336;-26.094;27.994;2023-02-15T06:27:36;84619.81;;;33.42;31.41
73974;BME280;62336;-26.094;27.994;2023-02-15T06:30:02;84623.08;;;33.91;31.38
73974;BME280;62336;-26.094;27.994;2023-02-15T06:32:28;84618.43;;;33.50;31.03
73974;BME280;62336;-26.094;27.994;2023-02-15T06:34:54;84617.96;;;33.49;31.67
73974;BME280;62336;-26.094;27.994;2023-02-15T06:37:20;84613.84;;;33.77;31.11
73974;BME280;62336;-26.094;27.994;2023-02-15T06:39:45;84613.66;;;33.66;30.93
73974;BME280;62336;-26.094;27.994;2023-02-15T06:42:11;84615.03;;;33.72;31.50
73974;BME280;62336;-26.094;27.994;2023-02-15T06:44:37;84615.48;;;33.80;30.73
73974;BME280;62336;-26.094;27.994;2023-02-15T06:47:03;84611.62;;;33.79;30.64
73974;BME280;62336;-26.094;27.994;2023-02-15T06:49:28;84612.35;;;33.81;30.54
73974;BME280;62336;-26.094;27.994;2023-02-15T06:51:54;84615.94;;;33.74;30.78
73974;BME280;62336;-26.094;27.994;2023-02-15T06:54:20;84615.17;;;33.98;30.53
73974;BME280;62336;-26.094;27.994;2023-02-15T06:56:46;84615.14;;;33.97;30.12
73974;BME280;62336;-26.094;27.994;2023-02-15T06:59:11;84618.06;;;33.99;29.82
73974;BME280;62336;-26.094;27.994;2023-02-15T07:01:37;84615.67;;;33.91;29.66
73974;BME280;62336;-26.094;27.994;2023-02-15T07:04:02;84616.01;;;33.92;29.33
73974;BME280;62336;-26.094;27.994;2023-02-15T07:06:32;84611.92;;;33.85;29.48
73974;BME280;62336;-26.094;27.994;2023-02-15T07:08:53;84610.96;;;34.07;29.51
73974;BME280;62336;-26.094;27.994;2023-02-15T07:11:19;84612.04;;;33.93;29.55
73974;BME280;62336;-26.094;27.994;2023-02-15T07:13:46;84615.14;;;34.26;29.42
73974;BME280;62336;-26.094;27.994;2023-02-15T07:16:11;84614.53;;;34.17;29.43
73974;BME280;62336;-26.094;27.994;2023-02-15T07:18:36;84616.40;;;34.56;29.66
73974;BME280;62336;-26.094;27.994;2023-02-15T07:21:03;84618.23;;;33.58;29.78
73974;BME280;62336;-26.094;27.994;2023-02-15T07:23:28;84618.07;;;33.71;29.39
73974;BME280;62336;-26.094;27.994;2023-02-15T07:25:57;84619.29;;;33.50;29.80
73974;BME280;62336;-26.094;27.994;2023-02-15T07:28:20;84619.30;;;33.40;29.79
73974;BME280;62336;-26.094;27.994;2023-02-15T07:30:46;84612.66;;;33.59;29.86
73974;BME280;62336;-26.094;27.994;2023-02-15T07:33:11;84613.27;;;34.00;29.80
73974;BME280;62336;-26.094;27.994;2023-02-15T07:35:37;84608.70;;;34.26;29.77
73974;BME280;62336;-26.094;27.994;2023-02-15T07:38:02;84606.17;;;33.66;29.98
73974;BME280;62336;-26.094;27.994;2023-02-15T07:40:27;84607.57;;;33.96;29.87
73974;BME280;62336;-26.094;27.994;2023-02-15T07:42:57;84605.66;;;33.98;29.27
73974;BME280;62336;-26.094;27.994;2023-02-15T07:45:19;84608.07;;;33.38;29.44
73974;BME280;62336;-26.094;27.994;2023-02-15T07:47:45;84601.94;;;33.74;29.31
73974;BME280;62336;-26.094;27.994;2023-02-15T07:50:11;84601.07;;;33.66;29.62
73974;BME280;62336;-26.094;27.994;2023-02-15T07:52:37;84601.50;;;33.84;29.10
73974;BME280;62336;-26.094;27.994;2023-02-15T07:55:03;84601.95;;;33.72;29.14
73974;BME280;62336;-26.094;27.994;2023-02-15T07:57:29;84600.89;;;33.79;29.12
73974;BME280;62336;-26.094;27.994;2023-02-15T07:59:54;84602.02;;;33.97;29.81
73974;BME280;62336;-26.094;27.994;2023-02-15T08:02:20;84605.52;;;34.24;29.50
73974;BME280;62336;-26.094;27.994;2023-02-15T08:04:45;84606.31;;;34.35;29.07
73974;BME280;62336;-26.094;27.994;2023-02-15T08:07:11;84607.12;;;34.12;29.61
73974;BME280;62336;-26.094;27.994;2023-02-15T08:09:37;84603.44;;;34.02;28.99
73974;BME280;62336;-26.094;27.994;2023-02-15T08:12:03;84603.24;;;34.37;29.20
73974;BME280;62336;-26.094;27.994;2023-02-15T08:14:29;84604.99;;;34.05;29.22
73974;BME280;62336;-26.094;27.994;2023-02-15T08:16:58;84598.79;;;34.10;28.99
73974;BME280;62336;-26.094;27.994;2023-02-15T08:19:21;84595.68;;;34.45;28.83
73974;BME280;62336;-26.094;27.994;2023-02-15T08:21:47;84593.41;;;34.48;28.96
73974;BME280;62336;-26.094;27.994;2023-02-15T08:24:13;84591.44;;;34.53;28.86
73974;BME280;62336;-26.094;27.994;2023-02-15T08:26:38;84589.27;;;34.68;28.62
73974;BME280;62336;-26.094;27.994;2023-02-15T08:29:03;84588.34;;;34.51;28.76
73974;BME280;62336;-26.094;27.994;2023-02-15T08:31:29;84586.89;;;34.77;28.52
73974;BME280;62336;-26.094;27.994;2023-02-15T08:33:55;84588.97;;;34.98;28.46
73974;BME280;62336;-26.094;27.994;2023-02-15T08:36:22;84588.49;;;35.07;27.94
73974;BME280;62336;-26.094;27.994;2023-02-15T08:38:46;84585.64;;;34.51;27.75
73974;BME280;62336;-26.094;27.994;2023-02-15T08:41:14;84582.95;;;34.83;29.29
73974;BME280;62336;-26.094;27.994;2023-02-15T08:43:38;84579.63;;;35.02;27.95
73974;BME280;62336;-26.094;27.994;2023-02-15T08:46:03;84574.27;;;34.52;28.23
73974;BME280;62336;-26.094;27.994;2023-02-15T08:48:29;84570.63;;;34.70;27.82
73974;BME280;62336;-26.094;27.994;2023-02-15T08:50:55;84562.66;;;34.38;28.24
73974;BME280;62336;-26.094;27.994;2023-02-15T08:53:21;84563.85;;;34.48;28.81
73974;BME280;62336;-26.094;27.994;2023-02-15T08:55:46;84566.45;;;34.75;28.12
73974;BME280;62336;-26.094;27.994;2023-02-15T08:58:12;84560.55;;;35.09;27.56
73974;BME280;62336;-26.094;27.994;2023-02-15T09:00:38;84556.45;;;35.26;27.63
73974;BME280;62336;-26.094;27.994;2023-02-15T09:03:04;84554.86;;;34.86;27.31
73974;BME280;62336;-26.094;27.994;2023-02-15T09:05:29;84556.28;;;34.83;27.15
73974;BME280;62336;-26.094;27.994;2023-02-15T09:07:55;84548.37;;;34.93;27.41
73974;BME280;62336;-26.094;27.994;2023-02-15T09:10:21;84541.19;;;35.16;27.70
73974;BME280;62336;-26.094;27.994;2023-02-15T09:12:47;84537.58;;;34.96;27.77
73974;BME280;62336;-26.094;27.994;2023-02-15T09:15:13;84541.03;;;35.16;27.55
73974;BME280;62336;-26.094;27.994;2023-02-15T09:17:39;84537.99;;;35.76;26.91
73974;BME280;62336;-26.094;27.994;2023-02-15T09:20:06;84538.85;;;36.09;26.42
73974;BME280;62336;-26.094;27.994;2023-02-15T09:22:30;84534.91;;;35.95;26.34
73974;BME280;62336;-26.094;27.994;2023-02-15T09:24:56;84533.65;;;36.30;25.24
73974;BME280;62336;-26.094;27.994;2023-02-15T09:27:22;84534.37;;;36.45;25.14
73974;BME280;62336;-26.094;27.994;2023-02-15T09:29:47;84530.52;;;36.25;25.19
73974;BME280;62336;-26.094;27.994;2023-02-15T09:32:16;84531.05;;;36.02;25.35
73974;BME280;62336;-26.094;27.994;2023-02-15T09:34:39;84528.83;;;35.37;26.21
73974;BME280;62336;-26.094;27.994;2023-02-15T09:37:06;84522.78;;;35.34;26.31
73974;BME280;62336;-26.094;27.994;2023-02-15T09:39:31;84518.19;;;35.34;26.40
73974;BME280;62336;-26.094;27.994;2023-02-15T09:44:31;84509.69;;;35.44;26.77
73974;BME280;62336;-26.094;27.994;2023-02-15T09:46:59;84507.26;;;35.85;26.28
73974;BME280;62336;-26.094;27.994;2023-02-15T09:49:19;84505.74;;;35.90;26.25
73974;BME280;62336;-26.094;27.994;2023-02-15T09:51:54;84506.12;;;36.47;26.19
73974;BME280;62336;-26.094;27.994;2023-02-15T09:54:14;84502.40;;;36.13;25.39
73974;BME280;62336;-26.094;27.994;2023-02-15T09:56:33;84495.41;;;35.71;26.09
73974;BME280;62336;-26.094;27.994;2023-02-15T09:59:03;84491.21;;;35.72;26.32
73974;BME280;62336;-26.094;27.994;2023-02-15T10:01:29;84489.72;;;35.97;26.46
73974;BME280;62336;-26.094;27.994;2023-02-15T10:03:59;84489.70;;;35.13;26.95
73974;BME280;62336;-26.094;27.994;2023-02-15T10:06:32;84487.24;;;35.75;25.50
73974;BME280;62336;-26.094;27.994;2023-02-15T10:08:50;84482.25;;;36.50;25.58
73974;BME280;62336;-26.094;27.994;2023-02-15T10:11:11;84477.82;;;36.69;24.70
73974;BME280;62336;-26.094;27.994;2023-02-15T10:13:37;84475.93;;;36.36;24.82
73974;BME280;62336;-26.094;27.994;2023-02-15T10:16:08;84473.23;;;36.42;24.63
73974;BME280;62336;-26.094;27.994;2023-02-15T10:18:36;84470.38;;;36.34;25.17
73974;BME280;62336;-26.094;27.994;2023-02-15T10:20:57;84466.58;;;36.48;25.01
73974;BME280;62336;-26.094;27.994;2023-02-15T10:23:28;84463.64;;;35.98;25.59
73974;BME280;62336;-26.094;27.994;2023-02-15T10:25:45;84457.62;;;36.15;25.51
73974;BME280;62336;-26.094;27.994;2023-02-15T10:28:13;84450.21;;;36.04;25.36
73974;BME280;62336;-26.094;27.994;2023-02-15T10:30:41;84440.67;;;36.04;25.59
73974;BME280;62336;-26.094;27.994;2023-02-15T10:33:00;84441.13;;;36.73;24.65
73974;BME280;62336;-26.094;27.994;2023-02-15T10:35:29;84441.51;;;36.90;25.22
73974;BME280;62336;-26.094;27.994;2023-02-15T10:38:02;84432.37;;;37.04;24.57
73974;BME280;62336;-26.094;27.994;2023-02-15T10:40:23;84429.13;;;37.23;25.06
73974;BME280;62336;-26.094;27.994;2023-02-15T10:42:50;84424.35;;;36.95;24.41
73974;BME280;62336;-26.094;27.994;2023-02-15T10:45:16;84418.94;;;36.83;24.06
73974;BME280;62336;-26.094;27.994;2023-02-15T10:47:53;84421.81;;;36.37;24.79
73974;BME280;62336;-26.094;27.994;2023-02-15T10:52:33;84408.81;;;36.74;24.99
73974;BME280;62336;-26.094;27.994;2023-02-15T10:54:55;84403.18;;;37.33;23.68
73974;BME280;62336;-26.094;27.994;2023-02-15T10:57:21;84404.33;;;37.60;23.59
73974;BME280;62336;-26.094;27.994;2023-02-15T10:59:53;84397.84;;;37.27;23.63
73974;BME280;62336;-26.094;27.994;2023-02-15T11:02:15;84396.17;;;37.41;22.81
73974;BME280;62336;-26.094;27.994;2023-02-15T11:04:41;84398.66;;;37.48;22.52
73974;BME280;62336;-26.094;27.994;2023-02-15T11:07:00;84398.18;;;37.03;23.15
73974;BME280;62336;-26.094;27.994;2023-02-15T11:09:25;84397.74;;;36.95;23.60
73974;BME280;62336;-26.094;27.994;2023-02-15T11:11:50;84395.28;;;36.84;24.29
73974;BME280;62336;-26.094;27.994;2023-02-15T11:14:17;84388.24;;;36.56;25.01
73974;BME280;62336;-26.094;27.994;2023-02-15T11:16:43;84383.38;;;36.41;25.83
73974;BME280;62336;-26.094;27.994;2023-02-15T11:19:10;84386.85;;;36.87;24.57
73974;BME280;62336;-26.094;27.994;2023-02-15T11:21:34;84384.02;;;36.96;24.46
73974;BME280;62336;-26.094;27.994;2023-02-15T11:24:00;84374.82;;;37.35;24.35
73974;BME280;62336;-26.094;27.994;2023-02-15T11:26:29;84377.42;;;37.76;24.01
73974;BME280;62336;-26.094;27.994;2023-02-15T11:28:52;84375.16;;;37.31;23.92
73974;BME280;62336;-26.094;27.994;2023-02-15T11:31:19;84373.50;;;37.72;23.72
73974;BME280;62336;-26.094;27.994;2023-02-15T11:33:43;84364.66;;;36.44;24.20
73974;BME280;62336;-26.094;27.994;2023-02-15T11:36:11;84356.54;;;36.57;24.20
73974;BME280;62336;-26.094;27.994;2023-02-15T11:38:33;84353.42;;;36.47;23.94
73974;BME280;62336;-26.094;27.994;2023-02-15T11:41:00;84347.59;;;36.57;24.39
73974;BME280;62336;-26.094;27.994;2023-02-15T11:43:29;84345.24;;;36.18;24.43
73974;BME280;62336;-26.094;27.994;2023-02-15T11:45:48;84341.40;;;36.67;23.90
73974;BME280;62336;-26.094;27.994;2023-02-15T11:48:16;84340.71;;;36.62;24.27
73974;BME280;62336;-26.094;27.994;2023-02-15T11:50:41;84340.86;;;36.69;24.50
73974;BME280;62336;-26.094;27.994;2023-02-15T11:53:11;84337.59;;;36.74;24.46
73974;BME280;62336;-26.094;27.994;2023-02-15T11:55:32;84332.66;;;36.60;24.32
73974;BME280;62336;-26.094;27.994;2023-02-15T11:58:00;84328.82;;;36.46;24.36
73974;BME280;62336;-26.094;27.994;2023-02-15T12:00:32;84319.86;;;36.76;24.08
73974;BME280;62336;-26.094;27.994;2023-02-15T12:02:53;84314.08;;;36.43;24.11
73974;BME280;62336;-26.094;27.994;2023-02-15T12:05:19;84312.95;;;36.36;24.78
73974;BME280;62336;-26.094;27.994;2023-02-15T12:07:44;84302.55;;;36.15;24.70
73974;BME280;62336;-26.094;27.994;2023-02-15T12:10:17;84295.72;;;36.50;24.28
73974;BME280;62336;-26.094;27.994;2023-02-15T12:12:34;84295.84;;;36.92;24.42
73974;BME280;62336;-26.094;27.994;2023-02-15T12:14:59;84295.85;;;36.87;24.01
73974;BME280;62336;-26.094;27.994;2023-02-15T12:17:26;84288.31;;;36.92;23.41
73974;BME280;62336;-26.094;27.994;2023-02-15T12:19:50;84282.14;;;36.82;22.80
73974;BME280;62336;-26.094;27.994;2023-02-15T12:22:22;84285.34;;;36.74;23.08
73974;BME280;62336;-26.094;27.994;2023-02-15T12:24:45;84282.56;;;36.45;23.32
73974;BME280;62336;-26.094;27.994;2023-02-15T12:27:14;84274.08;;;36.89;23.27
73974;BME280;62336;-26.094;27.994;2023-02-15T12:29:39;84271.16;;;37.05;23.68
73974;BME280;62336;-26.094;27.994;2023-02-15T12:31:59;84263.33;;;36.99;23.90
73974;BME280;62336;-26.094;27.994;2023-02-15T12:34:26;84259.63;;;37.47;23.11
73974;BME280;62336;-26.094;27.994;2023-02-15T12:36:52;84259.41;;;36.73;23.79
73974;BME280;62336;-26.094;27.994;2023-02-15T12:39:21;84258.04;;;37.06;23.70
73974;BME280;62336;-26.094;27.994;2023-02-15T12:41:45;84252.55;;;36.93;22.52
73974;BME280;62336;-26.094;27.994;2023-02-15T12:44:16;84245.73;;;37.42;22.53
73974;BME280;62336;-26.094;27.994;2023-02-15T12:46:33;84236.92;;;37.09;23.33
73974;BME280;62336;-26.094;27.994;2023-02-15T12:49:10;84233.41;;;37.43;23.11
73974;BME280;62336;-26.094;27.994;2023-02-15T12:51:25;84233.34;;;37.19;23.60
73974;BME280;62336;-26.094;27.994;2023-02-15T12:53:51;84237.79;;;36.92;23.08
73974;BME280;62336;-26.094;27.994;2023-02-15T12:56:25;84234.13;;;36.42;23.43
73974;BME280;62336;-26.094;27.994;2023-02-15T12:58:44;84230.53;;;36.19;23.53
73974;BME280;62336;-26.094;27.994;2023-02-15T13:01:13;84221.71;;;36.24;24.10
73974;BME280;62336;-26.094;27.994;2023-02-15T13:03:34;84218.56;;;35.63;24.93
73974;BME280;62336;-26.094;27.994;2023-02-15T13:06:00;84224.64;;;36.00;24.78
73974;BME280;62336;-26.094;27.994;2023-02-15T13:08:28;84228.30;;;35.58;25.32
73974;BME280;62336;-26.094;27.994;2023-02-15T13:10:55;84222.29;;;35.38;25.68
73974;BME280;62336;-26.094;27.994;2023-02-15T13:13:20;84218.38;;;35.74;25.54
73974;BME280;62336;-26.094;27.994;2023-02-15T13:15:46;84215.37;;;35.64;24.91
73974;BME280;62336;-26.094;27.994;2023-02-15T13:18:12;84207.01;;;36.03;24.75
73974;BME280;62336;-26.094;27.994;2023-02-15T13:20:35;84200.23;;;35.46;24.69
73974;BME280;62336;-26.094;27.994;2023-02-15T13:23:03;84199.47;;;35.87;24.89
73974;BME280;62336;-26.094;27.994;2023-02-15T13:25:28;84189.71;;;36.13;24.58
73974;BME280;62336;-26.094;27.994;2023-02-15T13:27:54;84189.81;;;36.24;24.83
73974;BME280;62336;-26.094;27.994;2023-02-15T13:30:23;84189.69;;;36.35;24.60
73974;BME280;62336;-26.094;27.994;2023-02-15T13:32:43;84190.19;;;35.95;24.82
73974;BME280;62336;-26.094;27.994;2023-02-15T13:35:16;84183.25;;;36.31;24.15
73974;BME280;62336;-26.094;27.994;2023-02-15T13:37:49;84186.19;;;36.31;23.16
73974;BME280;62336;-26.094;27.994;2023-02-15T13:40:04;84182.71;;;36.99;22.89
73974;BME280;62336;-26.094;27.994;2023-02-15T13:42:30;84187.90;;;36.99;23.20
73974;BME280;62336;-26.094;27.994;2023-02-15T13:45:04;84183.10;;;37.08;23.62
73974;BME280;62336;-26.094;27.994;2023-02-15T13:47:23;84181.76;;;37.36;23.24
73974;BME280;62336;-26.094;27.994;2023-02-15T13:49:54;84190.26;;;37.55;24.27
73974;BME280;62336;-26.094;27.994;2023-02-15T13:52:18;84190.06;;;37.36;23.02
73974;BME280;62336;-26.094;27.994;2023-02-15T13:54:45;84189.75;;;37.16;23.14
73974;BME280;62336;-26.094;27.994;2023-02-15T13:59:40;84180.36;;;37.45;23.04
73974;BME280;62336;-26.094;27.994;2023-02-15T14:01:57;84172.37;;;37.08;23.20
73974;BME280;62336;-26.094;27.994;2023-02-15T14:04:31;84172.50;;;37.14;22.43
73974;BME280;62336;-26.094;27.994;2023-02-15T14:06:57;84162.75;;;37.34;22.67
73974;BME280;62336;-26.094;27.994;2023-02-15T14:09:17;84158.37;;;37.48;22.80
73974;BME280;62336;-26.094;27.994;2023-02-15T14:11:41;84158.48;;;37.40;22.85
73974;BME280;62336;-26.094;27.994;2023-02-15T14:16:36;84156.49;;;37.67;22.69
73974;BME280;62336;-26.094;27.994;2023-02-15T14:18:57;84154.56;;;37.65;22.74
73974;BME280;62336;-26.094;27.994;2023-02-15T14:21:24;84158.40;;;37.42;22.84
73974;BME280;62336;-26.094;27.994;2023-02-15T14:23:56;84159.39;;;37.69;22.56
73974;BME280;62336;-26.094;27.994;2023-02-15T14:26:17;84163.37;;;37.75;23.13
73974;BME280;62336;-26.094;27.994;2023-02-15T14:28:41;84163.24;;;37.18;22.84
73974;BME280;62336;-26.094;27.994;2023-02-15T14:31:04;84164.68;;;37.47;22.86
73974;BME280;62336;-26.094;27.994;2023-02-15T14:33:32;84167.98;;;37.28;22.96
73974;BME280;62336;-26.094;27.994;2023-02-15T14:35:53;84167.46;;;37.66;22.42
73974;BME280;62336;-26.094;27.994;2023-02-15T14:38:25;84155.88;;;37.86;22.85
73974;BME280;62336;-26.094;27.994;2023-02-15T14:40:50;84163.28;;;37.77;22.46
73974;BME280;62336;-26.094;27.994;2023-02-15T14:43:18;84166.42;;;37.03;23.17
73974;BME280;62336;-26.094;27.994;2023-02-15T14:45:41;84161.79;;;37.06;22.98
73974;BME280;62336;-26.094;27.994;2023-02-15T14:48:11;84167.18;;;36.93;22.77
73974;BME280;62336;-26.094;27.994;2023-02-15T14:50:41;84169.50;;;36.92;22.23
73974;BME280;62336;-26.094;27.994;2023-02-15T15:02:45;84181.64;;;37.75;22.06
73974;BME280;62336;-26.094;27.994;2023-02-15T15:05:08;84181.61;;;36.79;23.07
73974;BME280;62336;-26.094;27.994;2023-02-15T15:09:59;84184.10;;;36.62;23.08
73974;BME280;62336;-26.094;27.994;2023-02-15T15:14:45;84188.19;;;36.94;23.26
73974;BME280;62336;-26.094;27.994;2023-02-15T15:17:13;84190.31;;;36.44;23.24
73974;BME280;62336;-26.094;27.994;2023-02-15T15:22:04;84195.36;;;36.74;23.13
73974;BME280;62336;-26.094;27.994;2023-02-15T15:31:49;84191.73;;;36.70;23.06
73974;BME280;62336;-26.094;27.994;2023-02-15T15:34:19;84200.74;;;37.27;22.58
73974;BME280;62336;-26.094;27.994;2023-02-15T15:39:12;84212.71;;;37.07;22.27
73974;BME280;62336;-26.094;27.994;2023-02-15T15:41:39;84211.86;;;36.34;22.21
73974;BME280;62336;-26.094;27.994;2023-02-15T15:48:46;84222.57;;;36.47;22.80
73974;BME280;62336;-26.094;27.994;2023-02-15T15:51:17;84221.18;;;36.56;22.90
73974;BME280;62336;-26.094;27.994;2023-02-15T15:53:43;84221.82;;;36.38;22.64
73974;BME280;62336;-26.094;27.994;2023-02-15T15:56:09;84227.24;;;36.43;22.81
73974;BME280;62336;-26.094;27.994;2023-02-15T15:58:28;84229.45;;;35.77;23.09
73974;BME280;62336;-26.094;27.994;2023-02-15T16:01:00;84234.97;;;36.09;23.14
73974;BME280;62336;-26.094;27.994;2023-02-15T16:03:23;84240.04;;;35.93;22.94
73974;BME280;62336;-26.094;27.994;2023-02-15T16:05:44;84244.31;;;36.15;23.05
73974;BME280;62336;-26.094;27.994;2023-02-15T16:08:13;84247.97;;;36.09;23.67
73974;BME280;62336;-26.094;27.994;2023-02-15T16:10:37;84250.36;;;35.90;23.14
73974;BME280;62336;-26.094;27.994;2023-02-15T16:13:04;84249.26;;;35.86;22.95
73974;BME280;62336;-26.094;27.994;2023-02-15T16:15:34;84251.89;;;35.99;22.80
73974;BME280;62336;-26.094;27.994;2023-02-15T16:17:56;84254.32;;;35.69;23.44
73974;BME280;62336;-26.094;27.994;2023-02-15T16:20:25;84260.42;;;35.60;23.31
73974;BME280;62336;-26.094;27.994;2023-02-15T16:22:46;84264.84;;;35.91;23.11
73974;BME280;62336;-26.094;27.994;2023-02-15T16:25:19;84278.02;;;36.00;22.85
73974;BME280;62336;-26.094;27.994;2023-02-15T16:27:38;84278.91;;;36.43;22.80
73974;BME280;62336;-26.094;27.994;2023-02-15T16:30:19;84285.31;;;36.58;22.51
73974;BME280;62336;-26.094;27.994;2023-02-15T16:32:28;84283.40;;;36.50;22.40
73974;BME280;62336;-26.094;27.994;2023-02-15T16:34:56;84285.93;;;36.55;21.96
73974;BME280;62336;-26.094;27.994;2023-02-15T16:37:22;84288.92;;;36.37;22.08
73974;BME280;62336;-26.094;27.994;2023-02-15T16:39:46;84291.96;;;36.35;22.25
73974;BME280;62336;-26.094;27.994;2023-02-15T16:42:12;84293.39;;;36.39;22.28
73974;BME280;62336;-26.094;27.994;2023-02-15T16:44:37;84297.81;;;36.59;22.33
73974;BME280;62336;-26.094;27.994;2023-02-15T16:47:03;84302.17;;;36.46;22.27
73974;BME280;62336;-26.094;27.994;2023-02-15T16:49:29;84306.74;;;36.75;22.19
73974;BME280;62336;-26.094;27.994;2023-02-15T16:51:57;84311.99;;;36.73;22.36
73974;BME280;62336;-26.094;27.994;2023-02-15T16:54:21;84309.89;;;36.80;21.90
73974;BME280;62336;-26.094;27.994;2023-02-15T16:56:45;84309.70;;;36.58;22.11
73974;BME280;62336;-26.094;27.994;2023-02-15T16:59:28;84310.46;;;36.72;22.09
73974;BME280;62336;-26.094;27.994;2023-02-15T17:01:37;84308.70;;;37.10;22.38
73974;BME280;62336;-26.094;27.994;2023-02-15T17:04:13;84312.39;;;36.89;22.15
73974;BME280;62336;-26.094;27.994;2023-02-15T17:06:29;84317.53;;;36.98;22.24
73974;BME280;62336;-26.094;27.994;2023-02-15T17:09:03;84316.30;;;36.97;22.31
73974;BME280;62336;-26.094;27.994;2023-02-15T17:11:22;84318.90;;;37.28;21.83
73974;BME280;62336;-26.094;27.994;2023-02-15T17:16:23;84320.71;;;36.97;22.65
73974;BME280;62336;-26.094;27.994;2023-02-15T17:18:44;84326.41;;;36.91;22.48
73974;BME280;62336;-26.094;27.994;2023-02-15T17:21:09;84332.54;;;37.09;22.42
73974;BME280;62336;-26.094;27.994;2023-02-15T17:23:31;84334.67;;;36.74;22.62